KRR weather

Krasnodar Pashkovsky International Airport
Krasnodar, Krasnodar Krai, Russia

Public forecast

Using degrees Celsius for public forecast. Weather courtesy of forecast.io.

Current aviation weather report (METAR) for Krasnodar Pashkovsky International Airport

Retrieved 2019/11/22 01:30 UTC (0 seconds ago):

URKK 220130Z 07008MPS 9999 BKN023 M03/M08 Q1030 R05R/CLRD70 NOSIG RMK QFE769

Aviation forecast (TAF) for Krasnodar Pashkovsky International Airport

Retrieved 2019-11-22 03:22 UTC (0 seconds ago):

TAF URKK 220155Z 2203/2303 07008G14MPS 9999 SCT030 TEMPO 2203/2303 08012G17MPS